Meteorología y climatología de Navarra
Datos de la estación - Meteo Navarra

Estación de Getadar GN

Altitud 710 m.


Datos desde el 07/12/2018 hasta el 08/12/2018 en horario solar
Los datos son PROVISIONALES

Anterior Página 1 de 1 Siguiente Descargar: Formato para Excel 2000 o superior   Formato csv   Formato para OpenOffice Calc
Fecha Temperatura Humedad relativa Radiación global Insolación Precipitación Velocidad viento 10 m Velocidad viento 10 m Dirección viento 10 m
ºC % W/m² s l/m² m/s km/h º
07/12/2018 0:00 6.8 79 0.0 0 0.0 4.3 15.4 326
07/12/2018 0:10 6.9 79 0.0 0 0.0 4.6 16.5 329
07/12/2018 0:20 7.0 79 0.0 0 0.0 2.6 9.5 322
07/12/2018 0:30 6.9 79 0.0 0 0.0 3.3 11.8 327
07/12/2018 0:40 6.7 79 0.0 0 0.0 2.5 9.1 340
07/12/2018 0:50 6.4 80 0.0 0 0.0 1.6 5.8 334
07/12/2018 1:00 6.2 81 0.0 0 0.0 1.8 6.6 334
07/12/2018 1:10 5.8 82 0.0 0 0.0 1.8 6.4 327
07/12/2018 1:20 5.6 82 0.0 0 0.0 2.0 7.1 329
07/12/2018 1:30 5.3 84 0.0 0 0.0 1.9 6.8 323
07/12/2018 1:40 5.3 85 0.0 0 0.0 2.0 7.3 333
07/12/2018 1:50 5.0 86 0.0 0 0.0 2.0 7.2 333
07/12/2018 2:00 4.6 87 0.0 0 0.0 1.7 5.9 338
07/12/2018 2:10 4.2 89 0.0 0 0.0 1.4 5.1 346
07/12/2018 2:20 3.9 90 0.0 0 0.0 0.9 3.1 6
07/12/2018 2:30 3.5 91 0.0 0 0.0 1.1 4.1 11
07/12/2018 2:40 3.2 92 0.0 0 0.0 0.9 3.3 11
07/12/2018 2:50 3.0 93 0.0 0 0.0 1.0 3.6 11
07/12/2018 3:00 3.0 93 0.0 0 0.0 1.3 4.8 5
07/12/2018 3:10 2.9 94 0.0 0 0.0 1.1 4.0 8
07/12/2018 3:20 2.7 94 0.0 0 0.0 1.3 4.5 12
07/12/2018 3:30 2.8 95 0.0 0 0.0 1.6 5.9 3
07/12/2018 3:40 2.8 95 0.0 0 0.0 1.3 4.6 10
07/12/2018 3:50 2.7 95 0.0 0 0.0 1.7 5.9 1
07/12/2018 4:00 2.8 96 0.0 0 0.0 1.4 4.9 356
07/12/2018 4:10 2.9 95 0.0 0 0.0 1.5 5.3 2
07/12/2018 4:20 2.7 95 0.0 0 0.0 1.6 5.7 1
07/12/2018 4:30 2.6 96 0.0 0 0.0 1.8 6.6 359
07/12/2018 4:40 2.6 96 0.0 0 0.0 1.9 6.8 356
07/12/2018 4:50 2.5 96 0.0 0 0.0 2.0 7.1 2
07/12/2018 5:00 2.3 96 0.0 0 0.0 1.9 6.9 0
07/12/2018 5:10 2.3 96 0.0 0 0.0 1.8 6.5 0
07/12/2018 5:20 2.2 96 0.0 0 0.0 1.6 5.9 5
07/12/2018 5:30 2.2 97 0.0 0 0.0 1.8 6.6 5
07/12/2018 5:40 2.1 97 0.0 0 0.0 1.7 6.0 7
07/12/2018 5:50 2.0 97 0.0 0 0.0 1.6 5.7 3
07/12/2018 6:00 1.8 97 0.0 0 0.0 1.5 5.2 1
07/12/2018 6:10 1.8 97 0.0 0 0.0 1.2 4.4 7
07/12/2018 6:20 1.7 97 0.0 0 0.0 1.5 5.5 3
07/12/2018 6:30 1.6 97 0.0 0 0.0 1.3 4.8 3
07/12/2018 6:40 1.4 97 0.0 0 0.0 1.4 5.1 8
07/12/2018 6:50 1.4 97 0.0 0 0.0 1.5 5.5 357
07/12/2018 7:00 1.1 97 0.0 0 0.0 1.7 5.9 6
07/12/2018 7:10 1.3 98 0.0 0 0.0 1.8 6.5 3
07/12/2018 7:20 1.4 98 0.0 0 0.0 2.0 7.1 2
07/12/2018 7:30 1.6 98 13.5 0 0.0 1.5 5.5 356
07/12/2018 7:40 1.8 98 30.5 308 0.0 1.8 6.6 359
07/12/2018 7:50 1.9 98 48.2 600 0.0 1.7 6.1 9
07/12/2018 8:00 1.8 98 65.3 600 0.0 1.8 6.3 3
07/12/2018 8:10 1.8 98 90.7 600 0.0 1.7 6.2 9
07/12/2018 8:20 2.2 98 117.4 600 0.0 1.2 4.5 12
07/12/2018 8:30 2.5 98 140.8 600 0.0 1.6 5.8 12
07/12/2018 8:40 2.9 98 164.1 600 0.0 1.3 4.8 18
07/12/2018 8:50 3.9 98 187.3 600 0.0 0.2 0.8 60
07/12/2018 9:00 4.6 96 210.5 600 0.0 0.1 0.3 169
07/12/2018 9:10 5.0 92 234.0 600 0.0 0.6 2.2 158
07/12/2018 9:20 5.6 89 255.4 600 0.0 0.4 1.3 202
07/12/2018 9:30 5.8 87 275.7 600 0.0 0.5 1.9 160
07/12/2018 9:40 6.0 86 295.7 600 0.0 1.1 3.9 168
07/12/2018 9:50 6.8 84 315.1 600 0.0 0.7 2.6 145
07/12/2018 10:00 7.1 82 333.0 600 0.0 0.8 2.9 146
07/12/2018 10:10 7.5 81 350.5 600 0.0 0.3 0.9 156
07/12/2018 10:20 7.9 79 367.6 600 0.0 0.6 2.1 172
07/12/2018 10:30 7.9 77 382.9 600 0.0 0.8 2.9 193
07/12/2018 10:40 8.1 78 397.5 600 0.0 0.9 3.3 178
07/12/2018 10:50 8.4 77 410.9 600 0.0 0.8 2.9 168
07/12/2018 11:00 8.8 76 422.4 600 0.0 1.1 3.8 158
07/12/2018 11:10 9.3 74 430.5 600 0.0 0.6 2.1 197
07/12/2018 11:20 9.8 72 437.2 600 0.0 0.8 2.7 166
07/12/2018 11:30 10.3 70 440.4 600 0.0 0.4 1.4 125
07/12/2018 11:40 10.6 69 443.1 600 0.0 1.0 3.6 188
07/12/2018 11:50 10.9 66 448.2 600 0.0 1.0 3.5 252
07/12/2018 12:00 11.2 58 427.5 600 0.0 1.4 5.0 310
07/12/2018 12:10 10.9 58 424.0 600 0.0 0.9 3.3 321
07/12/2018 12:20 11.5 57 446.6 600 0.0 1.0 3.4 351
07/12/2018 12:30 11.8 56 440.3 600 0.0 0.8 2.7 360
07/12/2018 12:40 12.0 54 434.5 600 0.0 1.1 3.9 286
07/12/2018 12:50 12.6 52 426.8 600 0.0 0.7 2.6 268
07/12/2018 13:00 13.1 57 416.4 600 0.0 0.7 2.6 149
07/12/2018 13:10 12.2 61 407.8 600 0.0 1.0 3.6 161
07/12/2018 13:20 12.4 62 398.1 600 0.0 0.9 3.4 151
07/12/2018 13:30 12.1 65 392.9 600 0.0 1.3 4.6 161
07/12/2018 13:40 11.7 67 383.4 600 0.0 1.9 6.8 190
07/12/2018 13:50 11.2 68 233.1 428 0.0 1.3 4.6 175
07/12/2018 14:00 11.6 67 332.4 600 0.0 0.3 1.2 84
07/12/2018 14:10 12.0 62 363.8 592 0.0 1.6 5.7 312
07/12/2018 14:20 12.0 61 304.2 600 0.0 1.1 4.0 310
07/12/2018 14:30 12.4 60 282.6 600 0.0 0.6 2.2 267
07/12/2018 14:40 12.6 62 260.1 600 0.0 0.6 2.1 127
07/12/2018 14:50 11.9 66 239.1 600 0.0 0.9 3.3 141
07/12/2018 15:00 11.8 65 223.1 600 0.0 0.6 2.2 193
07/12/2018 15:10 12.4 62 192.8 514 0.0 0.3 0.9 235
07/12/2018 15:20 11.9 65 81.4 14 0.0 1.2 4.3 299
07/12/2018 15:30 10.8 69 65.6 0 0.0 2.4 8.6 345
07/12/2018 15:40 10.2 70 50.1 0 0.0 1.9 6.8 347
07/12/2018 15:50 9.9 71 38.9 0 0.0 1.7 6.2 345
07/12/2018 16:00 9.8 70 28.3 0 0.0 2.5 8.8 347
07/12/2018 16:10 9.6 70 22.3 0 0.0 2.3 8.1 344
07/12/2018 16:20 9.5 72 18.0 0 0.0 2.9 10.3 345
07/12/2018 16:30 9.5 75 13.4 0 0.0 2.7 9.8 348
07/12/2018 16:40 9.5 77 0.0 0 0.0 2.4 8.7 345
07/12/2018 16:50 9.5 78 0.0 0 0.0 2.4 8.8 343
07/12/2018 17:00 9.6 79 0.0 0 0.0 2.6 9.4 343
07/12/2018 17:10 9.6 79 0.0 0 0.0 2.8 10.0 345
07/12/2018 17:20 9.6 80 0.0 0 0.0 3.1 11.1 343
07/12/2018 17:30 9.6 81 0.0 0 0.0 2.9 10.4 340
07/12/2018 17:40 9.5 81 0.0 0 0.0 2.7 9.9 339
07/12/2018 17:50 9.5 82 0.0 0 0.0 2.7 9.7 339
07/12/2018 18:00 9.5 83 0.0 0 0.0 2.6 9.4 339
07/12/2018 18:10 9.4 84 0.0 0 0.0 2.2 8.1 333
07/12/2018 18:20 9.4 85 0.0 0 0.0 3.0 10.6 335
07/12/2018 18:30 9.2 88 0.0 0 0.0 2.9 10.3 340
07/12/2018 18:40 9.2 88 0.0 0 0.0 4.2 15.1 335
07/12/2018 18:50 9.1 88 0.0 0 0.0 3.4 12.4 334
07/12/2018 19:00 9.1 89 0.0 0 0.0 3.1 11.0 336
07/12/2018 19:10 9.1 88 0.0 0 0.0 4.6 16.5 334
07/12/2018 19:20 9.1 88 0.0 0 0.0 5.4 19.3 335
07/12/2018 19:30 9.1 86 0.0 0 0.0 5.1 18.5 340
07/12/2018 19:40 9.2 84 0.0 0 0.0 5.7 20.6 341
07/12/2018 19:50 9.1 84 0.0 0 0.0 5.7 20.4 339
07/12/2018 20:00 9.0 85 0.0 0 0.0 4.4 15.7 341
07/12/2018 20:10 8.8 88 0.0 0 0.0 3.8 13.7 358
07/12/2018 20:20 8.5 89 0.0 0 0.0 4.5 16.1 355
07/12/2018 20:30 8.4 92 0.0 0 0.0 4.2 15.0 353
07/12/2018 20:40 8.2 92 0.0 0 0.0 4.4 15.7 358
07/12/2018 20:50 8.0 91 0.0 0 0.0 5.6 20.2 351
07/12/2018 21:00 7.8 92 0.0 0 0.1 5.5 19.6 354
07/12/2018 21:10 7.6 92 0.0 0 0.0 4.3 15.4 8
07/12/2018 21:20 7.4 92 0.0 0 0.0 4.5 16.2 5
07/12/2018 21:30 7.2 93 0.0 0 0.0 3.7 13.2 355
07/12/2018 21:40 7.0 93 0.0 0 0.1 4.3 15.4 356
07/12/2018 21:50 6.7 92 0.0 0 0.0 4.5 16.1 350
07/12/2018 22:00 6.6 91 0.0 0 0.0 4.6 16.6 349
07/12/2018 22:10 6.5 90 0.0 0 0.0 4.8 17.2 349
07/12/2018 22:20 6.3 90 0.0 0 0.0 5.5 19.7 350
07/12/2018 22:30 6.3 90 0.0 0 0.0 5.0 17.9 350
07/12/2018 22:40 6.2 90 0.0 0 0.0 5.1 18.4 348
07/12/2018 22:50 6.0 92 0.0 0 0.0 5.2 18.7 348
07/12/2018 23:00 6.0 92 0.0 0 0.0 4.5 16.3 350
07/12/2018 23:10 6.0 92 0.0 0 0.0 5.2 18.7 352
07/12/2018 23:20 6.0 91 0.0 0 0.0 4.3 15.4 351
07/12/2018 23:30 6.1 90 0.0 0 0.0 4.3 15.6 350
07/12/2018 23:40 6.2 88 0.0 0 0.0 3.8 13.7 350
07/12/2018 23:50 6.3 87 0.0 0 0.0 4.4 15.9 352
Anterior Página 1 de 1 Siguiente

NOTA: Tipo de datos según el color:
   - Valores diarios o 10 minutos correctos
   - Valores diarios calculados a partir de un número de datos 10 minutos menor que 144 y mayor que 120, o de un número de datos semihorarios menor que 48 y mayor que 40 (caso de las estaciones de Riegos de Navarra y del MARM)
   - Valores diez minutos estimados


Contacto        Enlaces        Aviso legal